sensor_id;sensor_type;location;lat;lon;timestamp;P1;durP1;ratioP1;P2;durP2;ratioP2
13234;SDS011;6683;48.506;9.050;2022-10-30T00:02:32;9.43;;;4.07;;
13234;SDS011;6683;48.506;9.050;2022-10-30T00:05:34;9.43;;;3.73;;
13234;SDS011;6683;48.506;9.050;2022-10-30T00:08:36;4.63;;;3.33;;
13234;SDS011;6683;48.506;9.050;2022-10-30T00:11:39;7.37;;;3.97;;
13234;SDS011;6683;48.506;9.050;2022-10-30T00:14:42;8.20;;;3.87;;
13234;SDS011;6683;48.506;9.050;2022-10-30T00:17:45;9.13;;;4.23;;
13234;SDS011;6683;48.506;9.050;2022-10-30T00:20:48;10.10;;;3.83;;
13234;SDS011;6683;48.506;9.050;2022-10-30T00:23:51;6.13;;;4.23;;
13234;SDS011;6683;48.506;9.050;2022-10-30T00:26:53;7.93;;;3.80;;
13234;SDS011;6683;48.506;9.050;2022-10-30T00:29:56;7.77;;;3.33;;
13234;SDS011;6683;48.506;9.050;2022-10-30T00:32:59;5.97;;;3.50;;
13234;SDS011;6683;48.506;9.050;2022-10-30T00:36:01;6.27;;;3.63;;
13234;SDS011;6683;48.506;9.050;2022-10-30T00:39:04;6.33;;;3.17;;
13234;SDS011;6683;48.506;9.050;2022-10-30T00:42:08;5.40;;;3.50;;
13234;SDS011;6683;48.506;9.050;2022-10-30T00:45:14;7.10;;;3.80;;
13234;SDS011;6683;48.506;9.050;2022-10-30T00:48:19;5.57;;;3.80;;
13234;SDS011;6683;48.506;9.050;2022-10-30T00:51:25;8.33;;;3.80;;
13234;SDS011;6683;48.506;9.050;2022-10-30T00:54:29;6.50;;;3.50;;
13234;SDS011;6683;48.506;9.050;2022-10-30T00:57:34;11.20;;;4.20;;
13234;SDS011;6683;48.506;9.050;2022-10-30T01:00:39;7.23;;;4.43;;
13234;SDS011;6683;48.506;9.050;2022-10-30T01:03:51;10.03;;;4.20;;
13234;SDS011;6683;48.506;9.050;2022-10-30T01:06:56;7.73;;;4.13;;
13234;SDS011;6683;48.506;9.050;2022-10-30T01:10:06;8.20;;;3.90;;
13234;SDS011;6683;48.506;9.050;2022-10-30T01:13:10;9.73;;;4.20;;
13234;SDS011;6683;48.506;9.050;2022-10-30T01:16:28;8.37;;;3.83;;
13234;SDS011;6683;48.506;9.050;2022-10-30T01:19:54;3.43;;;2.90;;
13234;SDS011;6683;48.506;9.050;2022-10-30T01:23:10;5.30;;;3.00;;
13234;SDS011;6683;48.506;9.050;2022-10-30T01:26:27;5.13;;;3.00;;
13234;SDS011;6683;48.506;9.050;2022-10-30T01:29:42;7.40;;;2.90;;
13234;SDS011;6683;48.506;9.050;2022-10-30T01:33:00;3.37;;;2.73;;
13234;SDS011;6683;48.506;9.050;2022-10-30T01:36:17;4.57;;;2.83;;
13234;SDS011;6683;48.506;9.050;2022-10-30T01:39:27;4.87;;;2.93;;
13234;SDS011;6683;48.506;9.050;2022-10-30T01:42:44;4.23;;;3.03;;
13234;SDS011;6683;48.506;9.050;2022-10-30T01:45:58;3.50;;;2.87;;
13234;SDS011;6683;48.506;9.050;2022-10-30T01:49:40;6.67;;;3.03;;
13234;SDS011;6683;48.506;9.050;2022-10-30T01:53:14;5.67;;;2.77;;
13234;SDS011;6683;48.506;9.050;2022-10-30T01:56:27;6.93;;;2.83;;
13234;SDS011;6683;48.506;9.050;2022-10-30T01:59:40;6.40;;;4.50;;
13234;SDS011;6683;48.506;9.050;2022-10-30T02:02:48;6.73;;;3.37;;
13234;SDS011;6683;48.506;9.050;2022-10-30T02:05:52;8.70;;;3.70;;
13234;SDS011;6683;48.506;9.050;2022-10-30T02:08:56;8.07;;;3.70;;
13234;SDS011;6683;48.506;9.050;2022-10-30T02:11:58;8.90;;;3.47;;
13234;SDS011;6683;48.506;9.050;2022-10-30T02:15:02;5.30;;;3.63;;
13234;SDS011;6683;48.506;9.050;2022-10-30T02:18:05;6.93;;;3.47;;
13234;SDS011;6683;48.506;9.050;2022-10-30T02:21:09;4.67;;;3.17;;
13234;SDS011;6683;48.506;9.050;2022-10-30T02:24:12;5.43;;;3.10;;
13234;SDS011;6683;48.506;9.050;2022-10-30T02:27:14;4.93;;;3.57;;
13234;SDS011;6683;48.506;9.050;2022-10-30T02:30:16;6.73;;;3.37;;
13234;SDS011;6683;48.506;9.050;2022-10-30T02:33:18;6.70;;;3.20;;
13234;SDS011;6683;48.506;9.050;2022-10-30T02:36:23;7.07;;;3.30;;
13234;SDS011;6683;48.506;9.050;2022-10-30T02:39:25;6.53;;;2.97;;
13234;SDS011;6683;48.506;9.050;2022-10-30T02:42:28;3.93;;;3.03;;
13234;SDS011;6683;48.506;9.050;2022-10-30T02:45:30;8.43;;;2.80;;
13234;SDS011;6683;48.506;9.050;2022-10-30T02:48:32;7.30;;;3.33;;
13234;SDS011;6683;48.506;9.050;2022-10-30T02:51:36;7.93;;;3.53;;
13234;SDS011;6683;48.506;9.050;2022-10-30T02:54:39;6.60;;;3.20;;
13234;SDS011;6683;48.506;9.050;2022-10-30T02:57:41;5.07;;;3.17;;
13234;SDS011;6683;48.506;9.050;2022-10-30T03:00:43;3.80;;;2.50;;
13234;SDS011;6683;48.506;9.050;2022-10-30T03:03:46;3.67;;;2.63;;
13234;SDS011;6683;48.506;9.050;2022-10-30T03:06:49;4.77;;;3.13;;
13234;SDS011;6683;48.506;9.050;2022-10-30T03:09:51;5.60;;;3.00;;
13234;SDS011;6683;48.506;9.050;2022-10-30T03:12:54;7.57;;;3.00;;
13234;SDS011;6683;48.506;9.050;2022-10-30T03:16:00;5.17;;;3.13;;
13234;SDS011;6683;48.506;9.050;2022-10-30T03:19:03;7.40;;;2.90;;
13234;SDS011;6683;48.506;9.050;2022-10-30T03:22:07;6.83;;;2.90;;
13234;SDS011;6683;48.506;9.050;2022-10-30T03:25:09;6.63;;;2.83;;
13234;SDS011;6683;48.506;9.050;2022-10-30T03:28:12;6.20;;;3.20;;
13234;SDS011;6683;48.506;9.050;2022-10-30T03:31:15;5.10;;;2.90;;
13234;SDS011;6683;48.506;9.050;2022-10-30T03:34:19;6.50;;;3.20;;
13234;SDS011;6683;48.506;9.050;2022-10-30T03:37:23;6.13;;;2.80;;
13234;SDS011;6683;48.506;9.050;2022-10-30T03:40:25;5.47;;;2.87;;
13234;SDS011;6683;48.506;9.050;2022-10-30T03:43:27;4.90;;;2.57;;
13234;SDS011;6683;48.506;9.050;2022-10-30T03:46:30;3.57;;;2.90;;
13234;SDS011;6683;48.506;9.050;2022-10-30T03:49:32;7.10;;;2.93;;
13234;SDS011;6683;48.506;9.050;2022-10-30T03:52:36;5.53;;;2.77;;
13234;SDS011;6683;48.506;9.050;2022-10-30T03:55:38;4.57;;;2.70;;
13234;SDS011;6683;48.506;9.050;2022-10-30T03:58:41;5.20;;;2.87;;
13234;SDS011;6683;48.506;9.050;2022-10-30T04:01:43;4.83;;;2.80;;
13234;SDS011;6683;48.506;9.050;2022-10-30T04:04:45;4.03;;;2.90;;
13234;SDS011;6683;48.506;9.050;2022-10-30T04:07:53;5.53;;;2.50;;
13234;SDS011;6683;48.506;9.050;2022-10-30T04:10:57;4.73;;;2.30;;
13234;SDS011;6683;48.506;9.050;2022-10-30T04:13:59;8.83;;;3.30;;
13234;SDS011;6683;48.506;9.050;2022-10-30T04:17:01;6.97;;;2.80;;
13234;SDS011;6683;48.506;9.050;2022-10-30T04:20:05;5.70;;;2.40;;
13234;SDS011;6683;48.506;9.050;2022-10-30T04:23:11;6.53;;;3.00;;
13234;SDS011;6683;48.506;9.050;2022-10-30T04:26:17;3.73;;;2.47;;
13234;SDS011;6683;48.506;9.050;2022-10-30T04:29:19;7.17;;;2.80;;
13234;SDS011;6683;48.506;9.050;2022-10-30T04:32:21;5.60;;;2.80;;
13234;SDS011;6683;48.506;9.050;2022-10-30T04:35:24;4.20;;;2.37;;
13234;SDS011;6683;48.506;9.050;2022-10-30T04:38:31;5.60;;;2.47;;
13234;SDS011;6683;48.506;9.050;2022-10-30T04:41:33;3.70;;;2.70;;
13234;SDS011;6683;48.506;9.050;2022-10-30T04:44:36;5.53;;;2.80;;
13234;SDS011;6683;48.506;9.050;2022-10-30T04:47:39;3.80;;;2.67;;
13234;SDS011;6683;48.506;9.050;2022-10-30T04:50:41;4.70;;;2.63;;
13234;SDS011;6683;48.506;9.050;2022-10-30T04:53:45;4.20;;;2.40;;
13234;SDS011;6683;48.506;9.050;2022-10-30T04:56:48;6.37;;;2.70;;
13234;SDS011;6683;48.506;9.050;2022-10-30T04:59:50;5.50;;;2.90;;
13234;SDS011;6683;48.506;9.050;2022-10-30T05:02:53;3.37;;;2.13;;
13234;SDS011;6683;48.506;9.050;2022-10-30T05:05:56;3.97;;;2.43;;
13234;SDS011;6683;48.506;9.050;2022-10-30T05:09:02;4.53;;;2.53;;
13234;SDS011;6683;48.506;9.050;2022-10-30T05:12:05;7.90;;;2.30;;
13234;SDS011;6683;48.506;9.050;2022-10-30T05:15:08;4.87;;;2.30;;
13234;SDS011;6683;48.506;9.050;2022-10-30T05:18:11;4.40;;;2.63;;
13234;SDS011;6683;48.506;9.050;2022-10-30T05:21:14;3.93;;;2.97;;
13234;SDS011;6683;48.506;9.050;2022-10-30T05:24:17;4.90;;;2.60;;
13234;SDS011;6683;48.506;9.050;2022-10-30T05:27:19;3.93;;;2.63;;
13234;SDS011;6683;48.506;9.050;2022-10-30T05:30:22;5.60;;;2.50;;
13234;SDS011;6683;48.506;9.050;2022-10-30T05:33:24;4.80;;;2.20;;
13234;SDS011;6683;48.506;9.050;2022-10-30T05:36:27;7.00;;;2.53;;
13234;SDS011;6683;48.506;9.050;2022-10-30T05:39:30;5.10;;;2.80;;
13234;SDS011;6683;48.506;9.050;2022-10-30T05:42:33;3.37;;;2.40;;
13234;SDS011;6683;48.506;9.050;2022-10-30T05:45:35;5.50;;;2.70;;
13234;SDS011;6683;48.506;9.050;2022-10-30T05:48:37;3.03;;;2.50;;
13234;SDS011;6683;48.506;9.050;2022-10-30T05:51:39;5.90;;;2.40;;
13234;SDS011;6683;48.506;9.050;2022-10-30T05:54:43;4.83;;;3.20;;
13234;SDS011;6683;48.506;9.050;2022-10-30T05:57:46;5.10;;;2.40;;
13234;SDS011;6683;48.506;9.050;2022-10-30T06:00:48;3.70;;;2.30;;
13234;SDS011;6683;48.506;9.050;2022-10-30T06:03:50;4.13;;;2.30;;
13234;SDS011;6683;48.506;9.050;2022-10-30T06:06:52;4.67;;;2.40;;
13234;SDS011;6683;48.506;9.050;2022-10-30T06:09:56;5.57;;;2.63;;
13234;SDS011;6683;48.506;9.050;2022-10-30T06:12:59;5.00;;;2.67;;
13234;SDS011;6683;48.506;9.050;2022-10-30T06:16:03;3.77;;;2.47;;
13234;SDS011;6683;48.506;9.050;2022-10-30T06:19:06;8.97;;;2.70;;
13234;SDS011;6683;48.506;9.050;2022-10-30T06:22:09;9.07;;;2.97;;
13234;SDS011;6683;48.506;9.050;2022-10-30T06:25:12;4.53;;;2.57;;
13234;SDS011;6683;48.506;9.050;2022-10-30T06:28:15;3.93;;;2.37;;
13234;SDS011;6683;48.506;9.050;2022-10-30T06:31:17;4.77;;;2.67;;
13234;SDS011;6683;48.506;9.050;2022-10-30T06:34:19;5.87;;;2.50;;
13234;SDS011;6683;48.506;9.050;2022-10-30T06:37:22;5.73;;;2.50;;
13234;SDS011;6683;48.506;9.050;2022-10-30T06:40:26;6.10;;;2.50;;
13234;SDS011;6683;48.506;9.050;2022-10-30T06:43:29;6.00;;;2.50;;
13234;SDS011;6683;48.506;9.050;2022-10-30T06:46:31;5.63;;;2.70;;
13234;SDS011;6683;48.506;9.050;2022-10-30T06:49:33;7.63;;;2.40;;
13234;SDS011;6683;48.506;9.050;2022-10-30T06:52:36;5.27;;;2.67;;
13234;SDS011;6683;48.506;9.050;2022-10-30T06:55:40;8.50;;;3.17;;
13234;SDS011;6683;48.506;9.050;2022-10-30T06:58:42;4.57;;;2.70;;
13234;SDS011;6683;48.506;9.050;2022-10-30T07:01:45;5.23;;;2.83;;
13234;SDS011;6683;48.506;9.050;2022-10-30T07:04:47;7.63;;;2.60;;
13234;SDS011;6683;48.506;9.050;2022-10-30T07:07:49;4.70;;;2.50;;
13234;SDS011;6683;48.506;9.050;2022-10-30T07:10:54;6.87;;;2.53;;
13234;SDS011;6683;48.506;9.050;2022-10-30T07:13:58;2.50;;;2.23;;
13234;SDS011;6683;48.506;9.050;2022-10-30T07:17:00;3.10;;;2.17;;
13234;SDS011;6683;48.506;9.050;2022-10-30T07:20:03;6.37;;;2.43;;
13234;SDS011;6683;48.506;9.050;2022-10-30T07:23:07;3.57;;;2.17;;
13234;SDS011;6683;48.506;9.050;2022-10-30T07:26:11;6.30;;;2.37;;
13234;SDS011;6683;48.506;9.050;2022-10-30T07:29:13;6.07;;;2.00;;
13234;SDS011;6683;48.506;9.050;2022-10-30T07:32:16;6.27;;;1.80;;
13234;SDS011;6683;48.506;9.050;2022-10-30T07:35:18;2.63;;;1.90;;
13234;SDS011;6683;48.506;9.050;2022-10-30T07:38:20;3.77;;;2.40;;
13234;SDS011;6683;48.506;9.050;2022-10-30T07:41:24;2.97;;;2.20;;
13234;SDS011;6683;48.506;9.050;2022-10-30T07:44:26;4.50;;;2.70;;
13234;SDS011;6683;48.506;9.050;2022-10-30T07:47:29;6.17;;;2.60;;
13234;SDS011;6683;48.506;9.050;2022-10-30T07:50:31;5.50;;;2.90;;
13234;SDS011;6683;48.506;9.050;2022-10-30T07:53:33;7.37;;;3.23;;
13234;SDS011;6683;48.506;9.050;2022-10-30T07:56:37;4.20;;;2.33;;
13234;SDS011;6683;48.506;9.050;2022-10-30T07:59:39;6.13;;;2.70;;
13234;SDS011;6683;48.506;9.050;2022-10-30T08:02:42;4.53;;;2.80;;
13234;SDS011;6683;48.506;9.050;2022-10-30T08:05:44;8.07;;;3.13;;
13234;SDS011;6683;48.506;9.050;2022-10-30T08:08:46;4.23;;;2.60;;
13234;SDS011;6683;48.506;9.050;2022-10-30T08:11:50;4.30;;;2.87;;
13234;SDS011;6683;48.506;9.050;2022-10-30T08:14:53;4.60;;;2.90;;
13234;SDS011;6683;48.506;9.050;2022-10-30T08:17:55;5.40;;;3.13;;
13234;SDS011;6683;48.506;9.050;2022-10-30T08:20:58;5.30;;;2.77;;
13234;SDS011;6683;48.506;9.050;2022-10-30T08:24:00;6.23;;;2.70;;
13234;SDS011;6683;48.506;9.050;2022-10-30T08:27:04;3.90;;;2.60;;
13234;SDS011;6683;48.506;9.050;2022-10-30T08:30:07;5.30;;;3.03;;
13234;SDS011;6683;48.506;9.050;2022-10-30T08:33:11;3.40;;;3.07;;
13234;SDS011;6683;48.506;9.050;2022-10-30T08:36:13;3.37;;;3.00;;
13234;SDS011;6683;48.506;9.050;2022-10-30T08:39:16;6.67;;;3.13;;
13234;SDS011;6683;48.506;9.050;2022-10-30T08:42:20;7.70;;;3.30;;
13234;SDS011;6683;48.506;9.050;2022-10-30T08:45:23;5.33;;;3.53;;
13234;SDS011;6683;48.506;9.050;2022-10-30T08:48:26;5.43;;;3.70;;
13234;SDS011;6683;48.506;9.050;2022-10-30T08:51:30;6.33;;;3.13;;
13234;SDS011;6683;48.506;9.050;2022-10-30T08:54:33;6.50;;;3.17;;
13234;SDS011;6683;48.506;9.050;2022-10-30T08:57:37;5.97;;;3.30;;
13234;SDS011;6683;48.506;9.050;2022-10-30T09:00:39;6.93;;;2.80;;
13234;SDS011;6683;48.506;9.050;2022-10-30T09:03:42;4.83;;;3.10;;
13234;SDS011;6683;48.506;9.050;2022-10-30T09:06:44;4.87;;;3.10;;
13234;SDS011;6683;48.506;9.050;2022-10-30T09:09:46;6.10;;;2.70;;
13234;SDS011;6683;48.506;9.050;2022-10-30T09:12:54;6.13;;;3.20;;
13234;SDS011;6683;48.506;9.050;2022-10-30T09:15:58;6.17;;;3.27;;
13234;SDS011;6683;48.506;9.050;2022-10-30T09:19:01;4.27;;;3.33;;
13234;SDS011;6683;48.506;9.050;2022-10-30T09:22:03;8.33;;;3.17;;
13234;SDS011;6683;48.506;9.050;2022-10-30T09:25:06;4.93;;;2.97;;
13234;SDS011;6683;48.506;9.050;2022-10-30T09:28:10;6.70;;;3.00;;
13234;SDS011;6683;48.506;9.050;2022-10-30T09:31:13;4.88;;;2.90;;
13234;SDS011;6683;48.506;9.050;2022-10-30T09:34:15;4.90;;;3.00;;
13234;SDS011;6683;48.506;9.050;2022-10-30T09:37:18;6.78;;;2.88;;
13234;SDS011;6683;48.506;9.050;2022-10-30T09:40:22;5.80;;;2.92;;
13234;SDS011;6683;48.506;9.050;2022-10-30T09:43:49;3.90;;;2.53;;
13234;SDS011;6683;48.506;9.050;2022-10-30T09:47:12;4.63;;;2.53;;
13234;SDS011;6683;48.506;9.050;2022-10-30T09:50:28;5.40;;;2.58;;
13234;SDS011;6683;48.506;9.050;2022-10-30T09:53:36;4.22;;;2.67;;
13234;SDS011;6683;48.506;9.050;2022-10-30T09:57:03;3.58;;;2.40;;
13234;SDS011;6683;48.506;9.050;2022-10-30T10:00:20;5.55;;;2.80;;
13234;SDS011;6683;48.506;9.050;2022-10-30T10:03:32;2.92;;;2.42;;
13234;SDS011;6683;48.506;9.050;2022-10-30T10:06:59;3.88;;;2.67;;
13234;SDS011;6683;48.506;9.050;2022-10-30T10:10:10;4.95;;;2.65;;
13234;SDS011;6683;48.506;9.050;2022-10-30T10:13:25;4.60;;;2.92;;
13234;SDS011;6683;48.506;9.050;2022-10-30T10:16:37;3.28;;;2.55;;
13234;SDS011;6683;48.506;9.050;2022-10-30T10:19:43;5.60;;;2.90;;
13234;SDS011;6683;48.506;9.050;2022-10-30T10:22:53;3.75;;;2.63;;
13234;SDS011;6683;48.506;9.050;2022-10-30T10:25:59;3.70;;;2.65;;
13234;SDS011;6683;48.506;9.050;2022-10-30T10:29:22;3.58;;;2.55;;
13234;SDS011;6683;48.506;9.050;2022-10-30T10:32:48;5.53;;;3.22;;
13234;SDS011;6683;48.506;9.050;2022-10-30T10:36:09;6.85;;;3.00;;
13234;SDS011;6683;48.506;9.050;2022-10-30T10:39:32;5.35;;;2.65;;
13234;SDS011;6683;48.506;9.050;2022-10-30T10:42:49;5.72;;;2.78;;
13234;SDS011;6683;48.506;9.050;2022-10-30T10:46:12;5.43;;;2.53;;
13234;SDS011;6683;48.506;9.050;2022-10-30T10:49:44;3.85;;;2.78;;
13234;SDS011;6683;48.506;9.050;2022-10-30T10:53:04;5.38;;;2.90;;
13234;SDS011;6683;48.506;9.050;2022-10-30T10:56:15;4.40;;;2.83;;
13234;SDS011;6683;48.506;9.050;2022-10-30T10:59:20;3.85;;;2.70;;
13234;SDS011;6683;48.506;9.050;2022-10-30T11:02:29;4.15;;;2.42;;
13234;SDS011;6683;48.506;9.050;2022-10-30T11:05:40;5.55;;;2.75;;
13234;SDS011;6683;48.506;9.050;2022-10-30T11:08:51;5.85;;;3.40;;
13234;SDS011;6683;48.506;9.050;2022-10-30T11:12:00;4.18;;;2.72;;
13234;SDS011;6683;48.506;9.050;2022-10-30T11:15:05;3.58;;;3.00;;
13234;SDS011;6683;48.506;9.050;2022-10-30T11:18:27;5.13;;;3.00;;
13234;SDS011;6683;48.506;9.050;2022-10-30T11:21:32;4.57;;;2.17;;
13234;SDS011;6683;48.506;9.050;2022-10-30T11:24:42;4.43;;;2.70;;
13234;SDS011;6683;48.506;9.050;2022-10-30T11:27:45;4.22;;;2.22;;
13234;SDS011;6683;48.506;9.050;2022-10-30T11:30:50;3.28;;;2.38;;
13234;SDS011;6683;48.506;9.050;2022-10-30T11:34:19;4.75;;;2.38;;
13234;SDS011;6683;48.506;9.050;2022-10-30T11:37:31;5.70;;;2.30;;
13234;SDS011;6683;48.506;9.050;2022-10-30T11:40:35;5.22;;;2.28;;
13234;SDS011;6683;48.506;9.050;2022-10-30T11:43:38;4.65;;;2.22;;
13234;SDS011;6683;48.506;9.050;2022-10-30T11:46:42;3.78;;;2.50;;
13234;SDS011;6683;48.506;9.050;2022-10-30T11:49:45;3.45;;;2.35;;
13234;SDS011;6683;48.506;9.050;2022-10-30T11:52:51;3.65;;;2.50;;
13234;SDS011;6683;48.506;9.050;2022-10-30T11:55:57;3.60;;;2.47;;
13234;SDS011;6683;48.506;9.050;2022-10-30T11:59:00;3.58;;;2.25;;
13234;SDS011;6683;48.506;9.050;2022-10-30T12:02:17;4.95;;;2.60;;
13234;SDS011;6683;48.506;9.050;2022-10-30T12:05:32;2.60;;;2.15;;
13234;SDS011;6683;48.506;9.050;2022-10-30T12:08:41;3.55;;;2.50;;
13234;SDS011;6683;48.506;9.050;2022-10-30T12:12:02;3.38;;;2.28;;
13234;SDS011;6683;48.506;9.050;2022-10-30T12:15:17;4.38;;;2.20;;
13234;SDS011;6683;48.506;9.050;2022-10-30T12:18:23;3.60;;;2.22;;
13234;SDS011;6683;48.506;9.050;2022-10-30T12:21:29;3.72;;;2.30;;
13234;SDS011;6683;48.506;9.050;2022-10-30T12:24:39;3.28;;;2.47;;
13234;SDS011;6683;48.506;9.050;2022-10-30T12:27:45;3.25;;;2.35;;
13234;SDS011;6683;48.506;9.050;2022-10-30T12:30:50;3.88;;;2.15;;
13234;SDS011;6683;48.506;9.050;2022-10-30T12:33:57;3.70;;;2.20;;
13234;SDS011;6683;48.506;9.050;2022-10-30T12:37:16;4.07;;;2.80;;
13234;SDS011;6683;48.506;9.050;2022-10-30T12:40:26;8.60;;;2.92;;
13234;SDS011;6683;48.506;9.050;2022-10-30T12:43:32;4.78;;;2.60;;
13234;SDS011;6683;48.506;9.050;2022-10-30T12:46:37;4.75;;;2.40;;
13234;SDS011;6683;48.506;9.050;2022-10-30T12:49:46;3.92;;;2.75;;
13234;SDS011;6683;48.506;9.050;2022-10-30T12:52:57;3.05;;;2.38;;
13234;SDS011;6683;48.506;9.050;2022-10-30T12:56:08;2.90;;;2.15;;
13234;SDS011;6683;48.506;9.050;2022-10-30T12:59:20;4.93;;;2.08;;
13234;SDS011;6683;48.506;9.050;2022-10-30T13:02:44;4.38;;;2.10;;
13234;SDS011;6683;48.506;9.050;2022-10-30T13:06:01;5.55;;;3.60;;
13234;SDS011;6683;48.506;9.050;2022-10-30T13:09:13;3.88;;;2.33;;
13234;SDS011;6683;48.506;9.050;2022-10-30T13:12:25;3.72;;;2.30;;
13234;SDS011;6683;48.506;9.050;2022-10-30T13:15:35;5.22;;;2.80;;
13234;SDS011;6683;48.506;9.050;2022-10-30T13:18:42;3.67;;;2.30;;
13234;SDS011;6683;48.506;9.050;2022-10-30T13:21:47;3.53;;;2.05;;
13234;SDS011;6683;48.506;9.050;2022-10-30T13:24:57;3.60;;;2.28;;
13234;SDS011;6683;48.506;9.050;2022-10-30T13:28:10;4.10;;;2.17;;
13234;SDS011;6683;48.506;9.050;2022-10-30T13:31:19;5.55;;;2.30;;
13234;SDS011;6683;48.506;9.050;2022-10-30T13:34:32;5.00;;;2.15;;
13234;SDS011;6683;48.506;9.050;2022-10-30T13:37:47;4.28;;;2.10;;
13234;SDS011;6683;48.506;9.050;2022-10-30T13:40:59;2.90;;;2.10;;
13234;SDS011;6683;48.506;9.050;2022-10-30T13:44:17;3.42;;;2.10;;
13234;SDS011;6683;48.506;9.050;2022-10-30T13:47:30;4.30;;;2.33;;
13234;SDS011;6683;48.506;9.050;2022-10-30T13:50:43;5.75;;;2.25;;
13234;SDS011;6683;48.506;9.050;2022-10-30T13:54:09;3.60;;;2.40;;
13234;SDS011;6683;48.506;9.050;2022-10-30T13:57:22;4.25;;;2.28;;
13234;SDS011;6683;48.506;9.050;2022-10-30T14:00:41;4.72;;;2.10;;
13234;SDS011;6683;48.506;9.050;2022-10-30T14:03:59;5.20;;;2.20;;
13234;SDS011;6683;48.506;9.050;2022-10-30T14:07:13;4.03;;;2.20;;
13234;SDS011;6683;48.506;9.050;2022-10-30T14:10:30;3.58;;;2.22;;
13234;SDS011;6683;48.506;9.050;2022-10-30T14:13:52;4.57;;;2.28;;
13234;SDS011;6683;48.506;9.050;2022-10-30T14:17:09;8.23;;;2.60;;
13234;SDS011;6683;48.506;9.050;2022-10-30T14:20:24;4.28;;;2.28;;
13234;SDS011;6683;48.506;9.050;2022-10-30T14:23:29;6.65;;;2.53;;
13234;SDS011;6683;48.506;9.050;2022-10-30T14:26:35;4.20;;;2.38;;
13234;SDS011;6683;48.506;9.050;2022-10-30T14:29:47;3.97;;;2.97;;
13234;SDS011;6683;48.506;9.050;2022-10-30T14:32:52;3.00;;;2.08;;
13234;SDS011;6683;48.506;9.050;2022-10-30T14:39:27;4.78;;;2.30;;
13234;SDS011;6683;48.506;9.050;2022-10-30T14:42:31;5.97;;;2.50;;
13234;SDS011;6683;48.506;9.050;2022-10-30T14:45:44;4.45;;;2.45;;
13234;SDS011;6683;48.506;9.050;2022-10-30T14:48:55;5.28;;;2.67;;
13234;SDS011;6683;48.506;9.050;2022-10-30T14:52:12;5.85;;;2.45;;
13234;SDS011;6683;48.506;9.050;2022-10-30T14:55:27;2.78;;;2.05;;
13234;SDS011;6683;48.506;9.050;2022-10-30T14:58:34;3.88;;;2.20;;
13234;SDS011;6683;48.506;9.050;2022-10-30T15:01:41;3.90;;;1.95;;
13234;SDS011;6683;48.506;9.050;2022-10-30T15:04:57;2.80;;;1.90;;
13234;SDS011;6683;48.506;9.050;2022-10-30T15:12:29;3.13;;;2.28;;
13234;SDS011;6683;48.506;9.050;2022-10-30T15:15:56;4.50;;;2.15;;
13234;SDS011;6683;48.506;9.050;2022-10-30T15:19:01;5.90;;;1.77;;
13234;SDS011;6683;48.506;9.050;2022-10-30T15:22:09;2.75;;;1.67;;
13234;SDS011;6683;48.506;9.050;2022-10-30T15:25:20;2.47;;;1.88;;
13234;SDS011;6683;48.506;9.050;2022-10-30T15:28:26;3.47;;;2.08;;
13234;SDS011;6683;48.506;9.050;2022-10-30T15:31:31;5.03;;;2.45;;
13234;SDS011;6683;48.506;9.050;2022-10-30T15:34:33;6.07;;;2.20;;
13234;SDS011;6683;48.506;9.050;2022-10-30T15:37:37;3.60;;;2.15;;
13234;SDS011;6683;48.506;9.050;2022-10-30T15:40:39;8.30;;;2.65;;
13234;SDS011;6683;48.506;9.050;2022-10-30T15:43:42;4.43;;;2.40;;
13234;SDS011;6683;48.506;9.050;2022-10-30T15:46:45;3.30;;;2.10;;
13234;SDS011;6683;48.506;9.050;2022-10-30T15:49:50;4.03;;;2.30;;
13234;SDS011;6683;48.506;9.050;2022-10-30T15:52:55;2.58;;;2.03;;
13234;SDS011;6683;48.506;9.050;2022-10-30T15:55:59;3.93;;;2.30;;
13234;SDS011;6683;48.506;9.050;2022-10-30T15:59:02;5.17;;;2.20;;
13234;SDS011;6683;48.506;9.050;2022-10-30T16:02:15;9.00;;;4.00;;
13234;SDS011;6683;48.506;9.050;2022-10-30T16:05:21;7.53;;;4.10;;
13234;SDS011;6683;48.506;9.050;2022-10-30T16:08:26;3.27;;;2.93;;
13234;SDS011;6683;48.506;9.050;2022-10-30T16:11:28;5.57;;;3.30;;
13234;SDS011;6683;48.506;9.050;2022-10-30T16:14:30;4.67;;;2.80;;
13234;SDS011;6683;48.506;9.050;2022-10-30T16:17:33;5.83;;;2.97;;
13234;SDS011;6683;48.506;9.050;2022-10-30T16:20:38;4.17;;;2.57;;
13234;SDS011;6683;48.506;9.050;2022-10-30T16:23:47;4.20;;;2.63;;
13234;SDS011;6683;48.506;9.050;2022-10-30T16:27:00;4.53;;;3.03;;
13234;SDS011;6683;48.506;9.050;2022-10-30T16:30:07;6.07;;;3.00;;
13234;SDS011;6683;48.506;9.050;2022-10-30T16:33:14;4.77;;;3.00;;
13234;SDS011;6683;48.506;9.050;2022-10-30T16:36:21;4.60;;;2.63;;
13234;SDS011;6683;48.506;9.050;2022-10-30T16:39:25;7.27;;;2.97;;
13234;SDS011;6683;48.506;9.050;2022-10-30T16:42:29;5.37;;;2.93;;
13234;SDS011;6683;48.506;9.050;2022-10-30T16:48:53;4.37;;;3.03;;
13234;SDS011;6683;48.506;9.050;2022-10-30T16:52:05;6.17;;;3.33;;
13234;SDS011;6683;48.506;9.050;2022-10-30T16:55:17;7.13;;;3.50;;
13234;SDS011;6683;48.506;9.050;2022-10-30T16:58:23;5.07;;;3.43;;
13234;SDS011;6683;48.506;9.050;2022-10-30T17:01:30;5.70;;;3.63;;
13234;SDS011;6683;48.506;9.050;2022-10-30T17:04:35;7.40;;;3.27;;
13234;SDS011;6683;48.506;9.050;2022-10-30T17:07:45;4.07;;;3.10;;
13234;SDS011;6683;48.506;9.050;2022-10-30T17:10:57;4.30;;;3.10;;
13234;SDS011;6683;48.506;9.050;2022-10-30T17:14:03;5.97;;;3.23;;
13234;SDS011;6683;48.506;9.050;2022-10-30T17:17:25;5.80;;;3.30;;
13234;SDS011;6683;48.506;9.050;2022-10-30T17:20:32;8.03;;;3.30;;
13234;SDS011;6683;48.506;9.050;2022-10-30T17:23:34;6.07;;;3.87;;
13234;SDS011;6683;48.506;9.050;2022-10-30T17:26:52;9.53;;;4.57;;
13234;SDS011;6683;48.506;9.050;2022-10-30T17:29:58;6.67;;;4.00;;
13234;SDS011;6683;48.506;9.050;2022-10-30T17:33:01;6.70;;;3.57;;
13234;SDS011;6683;48.506;9.050;2022-10-30T17:36:22;4.73;;;3.00;;
13234;SDS011;6683;48.506;9.050;2022-10-30T17:39:24;4.80;;;3.03;;
13234;SDS011;6683;48.506;9.050;2022-10-30T17:42:28;5.93;;;3.07;;
13234;SDS011;6683;48.506;9.050;2022-10-30T17:45:31;5.00;;;3.20;;
13234;SDS011;6683;48.506;9.050;2022-10-30T17:48:33;5.00;;;3.23;;
13234;SDS011;6683;48.506;9.050;2022-10-30T17:51:36;6.13;;;2.80;;
13234;SDS011;6683;48.506;9.050;2022-10-30T17:54:38;6.07;;;2.80;;
13234;SDS011;6683;48.506;9.050;2022-10-30T17:57:42;4.77;;;2.70;;
13234;SDS011;6683;48.506;9.050;2022-10-30T18:00:45;4.10;;;2.77;;
13234;SDS011;6683;48.506;9.050;2022-10-30T18:03:47;4.23;;;3.10;;
13234;SDS011;6683;48.506;9.050;2022-10-30T18:06:50;3.47;;;2.77;;
13234;SDS011;6683;48.506;9.050;2022-10-30T18:09:52;3.83;;;2.73;;
13234;SDS011;6683;48.506;9.050;2022-10-30T18:12:56;5.40;;;3.00;;
13234;SDS011;6683;48.506;9.050;2022-10-30T18:15:58;5.70;;;3.23;;
13234;SDS011;6683;48.506;9.050;2022-10-30T18:19:01;5.07;;;3.10;;
13234;SDS011;6683;48.506;9.050;2022-10-30T18:22:03;7.73;;;3.13;;
13234;SDS011;6683;48.506;9.050;2022-10-30T18:25:08;5.67;;;2.90;;
13234;SDS011;6683;48.506;9.050;2022-10-30T18:28:20;4.23;;;2.90;;
13234;SDS011;6683;48.506;9.050;2022-10-30T18:31:22;4.47;;;3.13;;
13234;SDS011;6683;48.506;9.050;2022-10-30T18:34:27;4.33;;;3.27;;
13234;SDS011;6683;48.506;9.050;2022-10-30T18:37:29;5.43;;;3.93;;
13234;SDS011;6683;48.506;9.050;2022-10-30T18:40:32;4.77;;;3.57;;
13234;SDS011;6683;48.506;9.050;2022-10-30T18:43:37;6.27;;;3.80;;
13234;SDS011;6683;48.506;9.050;2022-10-30T18:46:39;5.33;;;4.23;;
13234;SDS011;6683;48.506;9.050;2022-10-30T18:49:42;7.17;;;4.00;;
13234;SDS011;6683;48.506;9.050;2022-10-30T18:52:44;5.20;;;4.00;;
13234;SDS011;6683;48.506;9.050;2022-10-30T18:55:47;5.23;;;4.03;;
13234;SDS011;6683;48.506;9.050;2022-10-30T18:58:51;6.07;;;4.27;;
13234;SDS011;6683;48.506;9.050;2022-10-30T19:01:54;6.07;;;4.53;;
13234;SDS011;6683;48.506;9.050;2022-10-30T19:04:57;6.50;;;4.07;;
13234;SDS011;6683;48.506;9.050;2022-10-30T19:08:00;5.30;;;4.30;;
13234;SDS011;6683;48.506;9.050;2022-10-30T19:11:04;8.03;;;4.33;;
13234;SDS011;6683;48.506;9.050;2022-10-30T19:14:10;6.10;;;3.47;;